createdAt,value
2022-10-08T00:03:57.049Z,8.40
2022-10-08T00:09:03.380Z,8.90
2022-10-08T00:14:07.818Z,10.30
2022-10-08T00:19:13.684Z,10.60
2022-10-08T00:24:18.123Z,11.00
2022-10-08T00:29:23.090Z,10.90
2022-10-08T00:34:30.192Z,10.60
2022-10-08T00:39:34.800Z,11.20
2022-10-08T00:44:47.099Z,12.20
2022-10-08T00:49:51.949Z,12.30
2022-10-08T00:54:55.317Z,12.90
2022-10-08T00:59:58.654Z,13.70
2022-10-08T01:05:05.077Z,12.60
2022-10-08T01:10:08.693Z,13.20
2022-10-08T01:15:23.301Z,14.20
2022-10-08T01:20:46.623Z,12.90
2022-10-08T01:25:56.187Z,14.40
2022-10-08T01:31:15.555Z,13.20
2022-10-08T01:36:20.193Z,14.20
2022-10-08T01:41:25.965Z,14.10
2022-10-08T01:46:30.468Z,12.50
2022-10-08T01:51:55.082Z,12.80
2022-10-08T01:57:01.001Z,13.90
2022-10-08T02:02:15.523Z,14.50
2022-10-08T02:07:21.596Z,15.10
2022-10-08T02:12:24.952Z,14.00
2022-10-08T02:17:41.030Z,16.20
2022-10-08T02:22:47.160Z,16.50
2022-10-08T02:28:35.996Z,14.70
2022-10-08T02:34:08.473Z,15.70
2022-10-08T02:39:13.325Z,17.20
2022-10-08T02:44:22.581Z,25.40
2022-10-08T02:49:30.878Z,17.60
2022-10-08T02:54:37.553Z,16.80
2022-10-08T02:59:41.081Z,15.70
2022-10-08T03:04:48.660Z,14.90
2022-10-08T03:09:52.538Z,13.90
2022-10-08T03:14:55.834Z,14.50
2022-10-08T03:20:03.389Z,15.10
2022-10-08T03:25:06.796Z,14.60
2022-10-08T03:30:11.146Z,15.40
2022-10-08T03:35:17.246Z,19.10
2022-10-08T03:40:21.827Z,20.10
2022-10-08T03:45:24.929Z,14.70
2022-10-08T03:50:28.115Z,15.10
2022-10-08T03:55:31.185Z,14.70
2022-10-08T04:00:34.317Z,16.40
2022-10-08T04:05:37.472Z,19.50
2022-10-08T04:10:40.695Z,18.10
2022-10-08T04:15:45.030Z,20.60
2022-10-08T04:20:56.363Z,20.00
2022-10-08T04:26:04.439Z,21.30
2022-10-08T04:31:12.628Z,20.80
2022-10-08T04:36:21.819Z,22.50
2022-10-08T04:41:28.438Z,21.40
2022-10-08T04:46:32.919Z,19.70
2022-10-08T04:51:36.301Z,17.70
2022-10-08T04:56:39.522Z,16.90
2022-10-08T05:01:42.760Z,17.20
2022-10-08T05:06:45.913Z,17.60
2022-10-08T05:11:51.560Z,16.50
2022-10-08T05:16:54.957Z,19.30
2022-10-08T05:21:58.135Z,15.90
2022-10-08T05:27:01.309Z,16.00
2022-10-08T05:32:06.491Z,17.80
2022-10-08T05:37:09.669Z,15.70
2022-10-08T05:42:13.593Z,15.60
2022-10-08T05:47:16.674Z,15.10
2022-10-08T05:52:19.937Z,14.90
2022-10-08T05:57:23.172Z,14.80
2022-10-08T06:02:26.380Z,13.80
2022-10-08T06:07:29.645Z,13.70
2022-10-08T06:12:32.878Z,12.60
2022-10-08T06:17:36.565Z,13.00
2022-10-08T06:22:43.457Z,12.30
2022-10-08T06:27:51.891Z,11.50
2022-10-08T06:32:55.314Z,11.30
2022-10-08T06:38:03.072Z,10.60
2022-10-08T06:43:17.663Z,11.30
2022-10-08T06:48:22.646Z,11.80
2022-10-08T06:53:28.074Z,10.40
2022-10-08T06:58:38.630Z,10.40
2022-10-08T07:03:42.665Z,11.10
2022-10-08T07:09:03.237Z,11.20
2022-10-08T07:14:14.065Z,9.10
2022-10-08T07:19:18.979Z,10.60
2022-10-08T07:24:26.983Z,9.60
2022-10-08T07:29:49.173Z,9.80
2022-10-08T07:35:00.180Z,8.50
2022-10-08T07:40:14.102Z,9.40
2022-10-08T07:45:30.040Z,9.50
2022-10-08T07:50:38.738Z,9.90
2022-10-08T07:55:44.941Z,8.40
2022-10-08T08:00:53.345Z,10.00
2022-10-08T08:06:45.125Z,9.30
2022-10-08T08:11:55.468Z,9.30
2022-10-08T08:17:39.828Z,9.40
2022-10-08T08:23:12.266Z,9.60
2022-10-08T08:28:40.415Z,8.30
2022-10-08T08:34:15.733Z,8.00
2022-10-08T08:39:52.061Z,8.20
2022-10-08T08:45:47.808Z,9.50
2022-10-08T08:51:58.041Z,7.40
2022-10-08T09:03:36.032Z,8.10
2022-10-08T09:08:52.410Z,7.10
2022-10-08T09:14:18.941Z,9.70
2022-10-08T09:19:39.814Z,8.40
2022-10-08T09:24:43.286Z,6.00
2022-10-08T09:29:49.058Z,8.40
2022-10-08T09:34:58.261Z,8.10
2022-10-08T09:40:11.141Z,7.20
2022-10-08T09:45:41.058Z,10.30
2022-10-08T09:51:14.654Z,5.70
2022-10-08T09:56:29.111Z,5.90
2022-10-08T10:01:45.359Z,6.30
2022-10-08T10:07:05.974Z,4.50
2022-10-08T10:12:32.900Z,5.60
2022-10-08T10:17:41.768Z,6.50
2022-10-08T10:22:51.018Z,4.90
2022-10-08T10:28:28.085Z,3.50
2022-10-08T10:33:59.260Z,3.10
2022-10-08T10:39:36.262Z,3.60
2022-10-08T10:44:53.884Z,3.10
2022-10-08T10:50:34.808Z,3.20
2022-10-08T10:56:29.212Z,4.20
2022-10-08T11:02:04.098Z,1.90
2022-10-08T11:13:06.114Z,1.80
2022-10-08T11:18:40.489Z,1.40
2022-10-08T11:24:31.606Z,2.30
2022-10-08T11:29:58.163Z,0.70
2022-10-08T11:35:26.682Z,0.80
2022-10-08T11:40:39.669Z,1.30
2022-10-08T11:45:54.935Z,1.20
2022-10-08T11:51:45.840Z,0.50
2022-10-08T12:03:33.773Z,0.90
2022-10-08T12:08:59.746Z,1.20
2022-10-08T12:14:19.767Z,1.20
2022-10-08T12:19:35.821Z,2.00
2022-10-08T12:25:05.445Z,1.40
2022-10-08T12:30:29.598Z,0.70
2022-10-08T12:36:05.580Z,1.10
2022-10-08T12:41:34.681Z,1.50
2022-10-08T12:52:20.824Z,0.70
2022-10-08T12:57:35.123Z,1.40
2022-10-08T13:03:20.709Z,1.50
2022-10-08T13:08:40.383Z,1.70
2022-10-08T13:13:52.306Z,1.70
2022-10-08T13:19:00.569Z,1.50
2022-10-08T13:24:13.495Z,2.20
2022-10-08T13:29:24.895Z,2.00
2022-10-08T13:34:43.792Z,1.70
2022-10-08T13:40:04.251Z,1.40
2022-10-08T13:45:30.203Z,1.50
2022-10-08T13:51:00.354Z,1.50
2022-10-08T13:56:16.681Z,1.90
2022-10-08T14:01:25.863Z,1.40
2022-10-08T14:06:55.995Z,0.90
2022-10-08T14:12:08.330Z,2.80
2022-10-08T14:17:45.329Z,2.60
2022-10-08T14:23:00.853Z,1.80
2022-10-08T14:28:08.769Z,1.70
2022-10-08T14:33:20.543Z,2.50
2022-10-08T14:38:49.267Z,2.00
2022-10-08T14:43:55.757Z,1.30
2022-10-08T14:49:11.215Z,2.70
2022-10-08T14:54:18.472Z,1.90
2022-10-08T14:59:28.041Z,1.60
2022-10-08T15:04:37.214Z,1.70
2022-10-08T15:09:42.145Z,1.80
2022-10-08T15:14:55.161Z,1.10
2022-10-08T15:20:07.797Z,1.30
2022-10-08T15:25:14.333Z,2.70
2022-10-08T15:30:18.295Z,0.90
2022-10-08T15:35:26.756Z,1.20
2022-10-08T15:40:38.861Z,0.80
2022-10-08T15:51:03.875Z,1.20
2022-10-08T15:56:12.560Z,1.80
2022-10-08T16:01:32.085Z,1.20
2022-10-08T16:06:36.781Z,0.50
2022-10-08T16:11:45.063Z,0.10
2022-10-08T16:16:50.504Z,0.40
2022-10-08T16:21:56.397Z,0.40
2022-10-08T16:26:59.588Z,0.30
2022-10-08T16:32:03.955Z,0.30
2022-10-08T16:37:17.350Z,1.40
2022-10-08T16:42:27.275Z,0.40
2022-10-08T16:47:30.533Z,0.70
2022-10-08T16:52:34.407Z,1.50
2022-10-08T16:57:39.326Z,0.80
2022-10-08T17:02:42.442Z,0.80
2022-10-08T17:07:45.703Z,0.40
2022-10-08T17:12:49.613Z,0.40
2022-10-08T17:18:08.489Z,0.30
2022-10-08T17:23:21.184Z,0.30
2022-10-08T17:28:32.017Z,0.20
2022-10-08T17:33:36.305Z,0.60
2022-10-08T17:38:43.823Z,0.10
2022-10-08T17:43:58.409Z,0.40
2022-10-08T17:54:43.932Z,0.10
2022-10-08T18:00:15.442Z,0.40
2022-10-08T18:05:47.561Z,0.20
2022-10-08T18:11:17.885Z,0.80
2022-10-08T18:16:48.422Z,0.20
2022-10-08T18:22:09.879Z,0.40
2022-10-08T18:27:48.081Z,0.80
2022-10-08T18:33:07.040Z,1.70
2022-10-08T18:38:34.270Z,0.40
2022-10-08T18:44:15.627Z,1.10
2022-10-08T18:49:41.050Z,0.40
2022-10-08T18:55:35.385Z,0.30
2022-10-08T19:01:15.809Z,0.90
2022-10-08T19:07:03.463Z,0.50
2022-10-08T19:12:30.902Z,0.70
2022-10-08T19:18:25.897Z,0.70
2022-10-08T19:24:08.259Z,1.10
2022-10-08T19:30:09.879Z,0.10
2022-10-08T19:35:46.827Z,0.20
2022-10-08T19:41:20.986Z,0.40
2022-10-08T19:46:54.357Z,0.90
2022-10-08T19:52:03.491Z,0.60
2022-10-08T19:57:07.998Z,1.10
2022-10-08T20:02:11.448Z,0.40
2022-10-08T20:07:14.692Z,0.00
2022-10-08T20:12:17.867Z,1.00
2022-10-08T20:17:21.748Z,1.20
2022-10-08T20:22:28.220Z,0.10
2022-10-08T20:27:35.472Z,0.00
2022-10-08T20:32:56.347Z,0.60
2022-10-08T20:38:11.913Z,0.00
2022-10-08T20:43:15.150Z,1.20
2022-10-08T20:48:20.307Z,0.10
2022-10-08T20:53:30.272Z,0.10
2022-10-08T20:58:34.312Z,0.00
2022-10-08T21:03:38.471Z,0.20
2022-10-08T21:08:47.161Z,0.20
2022-10-08T21:13:51.062Z,0.00
2022-10-08T21:18:59.738Z,0.10
2022-10-08T21:24:03.235Z,0.80
2022-10-08T21:29:21.090Z,0.00
2022-10-08T21:34:34.183Z,0.00
2022-10-08T21:39:37.505Z,0.20
2022-10-08T21:44:40.779Z,0.40
2022-10-08T21:49:43.995Z,0.00
2022-10-08T21:54:48.094Z,0.10
2022-10-08T21:59:51.396Z,0.00
2022-10-08T22:05:00.969Z,1.50
2022-10-08T22:10:04.699Z,0.20
2022-10-08T22:15:15.635Z,0.90
2022-10-08T22:20:26.368Z,0.20
2022-10-08T22:25:42.180Z,0.20
2022-10-08T22:31:16.305Z,0.50
2022-10-08T22:36:33.640Z,0.10
2022-10-08T22:41:38.002Z,0.00
2022-10-08T22:46:41.235Z,0.50
2022-10-08T22:51:48.124Z,0.60
2022-10-08T22:56:51.544Z,0.10
2022-10-08T23:01:54.767Z,0.00
2022-10-08T23:06:59.066Z,1.00
2022-10-08T23:12:03.664Z,0.00
2022-10-08T23:17:07.105Z,0.20
2022-10-08T23:22:10.476Z,0.50
2022-10-08T23:27:13.887Z,0.10
2022-10-08T23:32:17.115Z,0.20
2022-10-08T23:37:21.046Z,0.00
2022-10-08T23:42:24.342Z,0.70
2022-10-08T23:47:27.499Z,0.40
2022-10-08T23:52:30.759Z,0.00
2022-10-08T23:57:34.016Z,0.20
